Time;durP1;ratioP1;P1;durP2;ratioP2;P2;SDS_P1;SDS_P2;PMS_P1;PMS_P2;Temp;Humidity;BMP_temperature;BMP_pressure;BME280_temperature;BME280_humidity;BME280_pressure;Samples;Min_cycle;Max_cycle;Signal;HPM_P1;HPM_P2
2021/10/31 00:00:24;;;;;;;;;;;13.20;99.90;;;;;;1931046;73;20108;-71
2021/10/31 00:02:51;;;;;;;;;;;13.20;99.90;;;;;;1931115;73;20175;-71
2021/10/31 00:05:18;;;;;;;;;;;13.20;99.90;;;;;;1930622;74;20197;-71
2021/10/31 00:07:45;;;;;;;;;;;13.20;99.90;;;;;;1945231;72;20127;-70
2021/10/31 00:10:12;;;;;;;;;;;13.20;99.90;;;;;;1949047;72;20167;-71
2021/10/31 00:12:39;;;;;;;;;;;13.20;99.90;;;;;;1941211;74;20178;-71
2021/10/31 00:15:06;;;;;;;;;;;13.10;99.90;;;;;;1948577;72;20178;-71
2021/10/31 00:17:33;;;;;;;;;;;13.10;99.90;;;;;;1940899;73;20108;-71
2021/10/31 00:19:59;;;;;;;;;;;13.10;99.90;;;;;;1931176;74;20168;-71
2021/10/31 00:22:26;;;;;;;;;;;13.10;99.90;;;;;;1930972;74;20213;-71
2021/10/31 00:24:53;;;;;;;;;;;13.10;99.90;;;;;;1947885;72;20120;-70
2021/10/31 00:27:20;;;;;;;;;;;13.10;99.90;;;;;;1949695;73;20202;-70
2021/10/31 00:29:47;;;;;;;;;;;13.10;99.90;;;;;;1950365;74;20194;-70
2021/10/31 00:32:13;;;;;;;;;;;13.00;99.90;;;;;;1928572;72;20222;-70
2021/10/31 00:34:40;;;;;;;;;;;13.00;99.90;;;;;;1929309;73;20211;-70
2021/10/31 00:37:07;;;;;;;;;;;13.00;99.90;;;;;;1931596;74;20269;-71
2021/10/31 00:39:34;;;;;;;;;;;13.10;99.90;;;;;;1946639;74;20151;-70
2021/10/31 00:42:00;;;;;;;;;;;13.00;99.90;;;;;;1930871;73;20190;-71
2021/10/31 00:44:27;;;;;;;;;;;13.00;99.90;;;;;;1931150;73;20111;-72
2021/10/31 00:46:54;;;;;;;;;;;13.00;99.90;;;;;;1931044;73;20209;-71
2021/10/31 00:49:21;;;;;;;;;;;12.90;99.90;;;;;;1931125;74;20163;-71
2021/10/31 00:51:48;;;;;;;;;;;13.00;99.90;;;;;;1933402;72;20409;-72
2021/10/31 00:54:15;;;;;;;;;;;12.90;99.90;;;;;;1933105;72;20214;-72
2021/10/31 00:56:42;;;;;;;;;;;13.00;99.90;;;;;;1939380;72;20171;-71
2021/10/31 00:59:09;;;;;;;;;;;13.00;99.90;;;;;;1933990;72;20189;-71
2021/10/31 01:01:36;;;;;;;;;;;13.00;99.90;;;;;;1943267;72;20127;-71
2021/10/31 01:04:04;;;;;;;;;;;13.00;99.90;;;;;;1963723;71;20200;-71
2021/10/31 01:06:35;;;;;;;;;;;13.00;99.90;;;;;;1985483;72;20157;-72
2021/10/31 01:09:03;;;;;;;;;;;13.00;99.90;;;;;;1957089;72;20105;-71
2021/10/31 01:11:38;;;;;;;;;;;12.90;99.90;;;;;;1945902;72;20264;-72
2021/10/31 01:14:09;;;;;;;;;;;13.00;99.90;;;;;;1945678;72;20151;-73
2021/10/31 01:16:37;;;;;;;;;;;12.90;99.90;;;;;;1911693;72;20176;-73
2021/10/31 01:19:22;;;;;;;;;;;12.90;99.90;;;;;;1951695;72;20412;-73
2021/10/31 01:22:07;;;;;;;;;;;13.00;99.90;;;;;;1937072;72;20203;-73
2021/10/31 01:24:38;;;;;;;;;;;12.90;99.90;;;;;;1932065;74;20159;-72
2021/10/31 01:27:07;;;;;;;;;;;12.90;99.90;;;;;;1948818;74;20205;-73
2021/10/31 01:29:41;;;;;;;;;;;12.90;99.90;;;;;;1947925;74;20207;-72
2021/10/31 01:32:19;;;;;;;;;;;13.00;99.90;;;;;;1947973;74;20117;-73
2021/10/31 01:34:47;;;;;;;;;;;13.00;99.90;;;;;;1948965;72;20485;-72
2021/10/31 01:37:18;;;;;;;;;;;13.00;99.90;;;;;;1947048;74;20172;-72
2021/10/31 01:39:47;;;;;;;;;;;13.00;99.90;;;;;;1916377;75;20498;-72
2021/10/31 01:42:18;;;;;;;;;;;13.00;99.90;;;;;;1937888;74;20167;-72
2021/10/31 01:44:50;;;;;;;;;;;13.00;99.90;;;;;;1940861;73;20105;-72
2021/10/31 01:47:35;;;;;;;;;;;13.00;99.90;;;;;;1951417;73;20167;-72
2021/10/31 01:50:15;;;;;;;;;;;12.90;99.90;;;;;;1953483;73;20159;-72
2021/10/31 01:52:53;;;;;;;;;;;13.00;99.90;;;;;;1954492;72;20216;-71
2021/10/31 01:55:21;;;;;;;;;;;13.00;99.90;;;;;;1934326;74;20243;-71
2021/10/31 01:57:49;;;;;;;;;;;13.00;99.90;;;;;;1947335;73;20182;-71
2021/10/31 02:00:17;;;;;;;;;;;13.00;99.90;;;;;;1950470;73;20159;-71
2021/10/31 02:02:45;;;;;;;;;;;13.00;99.90;;;;;;1948685;73;20209;-70
2021/10/31 02:05:13;;;;;;;;;;;13.00;99.90;;;;;;1948490;72;20491;-70
2021/10/31 02:07:42;;;;;;;;;;;13.00;99.90;;;;;;1937494;74;20222;-70
2021/10/31 02:10:09;;;;;;;;;;;13.10;99.90;;;;;;1931234;74;20174;-70
2021/10/31 02:12:37;;;;;;;;;;;13.00;99.90;;;;;;1931173;74;20468;-70
2021/10/31 02:15:04;;;;;;;;;;;13.00;99.90;;;;;;1952316;72;20419;-70
2021/10/31 02:17:31;;;;;;;;;;;13.10;99.90;;;;;;1952754;72;20120;-70
2021/10/31 02:19:59;;;;;;;;;;;13.00;99.90;;;;;;1927652;74;20496;-70
2021/10/31 02:22:30;;;;;;;;;;;13.00;99.90;;;;;;1932931;73;20398;-71
2021/10/31 02:24:57;;;;;;;;;;;12.90;99.90;;;;;;1930961;73;20174;-70
2021/10/31 02:27:25;;;;;;;;;;;13.00;99.90;;;;;;1930992;74;20150;-70
2021/10/31 02:29:52;;;;;;;;;;;13.00;99.90;;;;;;1931035;74;20158;-71
2021/10/31 02:32:21;;;;;;;;;;;12.90;99.90;;;;;;1948642;74;20452;-71
2021/10/31 02:34:48;;;;;;;;;;;12.90;99.90;;;;;;1948777;72;20124;-70
2021/10/31 02:37:15;;;;;;;;;;;12.90;99.90;;;;;;1935147;73;20214;-71
2021/10/31 02:39:43;;;;;;;;;;;12.90;99.90;;;;;;1950363;73;20148;-71
2021/10/31 02:42:10;;;;;;;;;;;12.80;99.90;;;;;;1950336;74;20179;-71
2021/10/31 02:44:37;;;;;;;;;;;12.80;99.90;;;;;;1950305;73;20174;-71
2021/10/31 02:47:04;;;;;;;;;;;12.80;99.90;;;;;;1949752;74;20502;-71
2021/10/31 02:49:31;;;;;;;;;;;12.80;99.90;;;;;;1978690;72;20435;-70
2021/10/31 02:51:59;;;;;;;;;;;12.80;99.90;;;;;;1953295;72;20116;-71
2021/10/31 02:54:37;;;;;;;;;;;12.80;99.90;;;;;;1955140;72;20115;-73
2021/10/31 02:57:11;;;;;;;;;;;12.90;99.90;;;;;;1944351;74;20179;-73
2021/10/31 02:59:54;;;;;;;;;;;12.80;99.90;;;;;;1938626;74;20157;-73
2021/10/31 03:02:21;;;;;;;;;;;12.80;99.90;;;;;;1936464;74;20167;-73
2021/10/31 03:04:49;;;;;;;;;;;12.70;99.90;;;;;;1950031;74;20190;-73
2021/10/31 03:07:16;;;;;;;;;;;12.70;99.90;;;;;;1968955;72;20160;-73
2021/10/31 03:09:46;;;;;;;;;;;12.70;99.90;;;;;;1985694;72;20387;-73
2021/10/31 03:12:13;;;;;;;;;;;12.70;99.90;;;;;;1985513;72;20498;-72
2021/10/31 03:14:40;;;;;;;;;;;12.70;99.90;;;;;;1985480;71;20186;-72
2021/10/31 03:17:07;;;;;;;;;;;12.70;99.90;;;;;;1985473;72;20109;-72
2021/10/31 03:19:36;;;;;;;;;;;12.70;99.90;;;;;;1958515;72;20171;-72
2021/10/31 03:22:04;;;;;;;;;;;12.70;99.90;;;;;;1968158;72;20133;-73
2021/10/31 03:24:31;;;;;;;;;;;12.60;99.90;;;;;;1948471;72;20449;-73
2021/10/31 03:26:57;;;;;;;;;;;12.60;99.90;;;;;;1945605;74;20117;-73
2021/10/31 03:29:24;;;;;;;;;;;12.60;99.90;;;;;;1960662;73;20495;-71
2021/10/31 03:31:52;;;;;;;;;;;12.50;99.90;;;;;;1978766;72;20121;-71
2021/10/31 03:34:19;;;;;;;;;;;12.50;99.90;;;;;;1955167;72;20444;-71
2021/10/31 03:36:47;;;;;;;;;;;12.50;99.90;;;;;;1950170;74;20163;-71
2021/10/31 03:39:14;;;;;;;;;;;12.50;99.90;;;;;;1950042;73;20183;-71
2021/10/31 03:41:41;;;;;;;;;;;12.50;99.90;;;;;;1950075;73;20197;-72
2021/10/31 03:44:08;;;;;;;;;;;12.50;99.90;;;;;;1950492;74;20119;-72
2021/10/31 03:46:35;;;;;;;;;;;12.50;99.90;;;;;;1950832;72;20468;-72
2021/10/31 03:49:01;;;;;;;;;;;12.40;99.90;;;;;;1950372;74;20135;-71
2021/10/31 03:51:28;;;;;;;;;;;12.50;99.90;;;;;;1950288;74;20299;-71
2021/10/31 03:53:55;;;;;;;;;;;12.40;99.90;;;;;;1950349;74;20234;-71
2021/10/31 03:56:22;;;;;;;;;;;12.50;99.90;;;;;;1949975;74;20120;-71
2021/10/31 03:58:49;;;;;;;;;;;12.40;99.90;;;;;;1950093;74;20437;-71
2021/10/31 04:01:16;;;;;;;;;;;12.30;99.90;;;;;;1979657;72;20146;-72
2021/10/31 04:03:43;;;;;;;;;;;12.40;99.90;;;;;;1985443;71;20198;-71
2021/10/31 04:06:12;;;;;;;;;;;12.40;99.90;;;;;;1985390;72;20118;-70
2021/10/31 04:08:40;;;;;;;;;;;12.40;99.90;;;;;;1985442;72;20515;-70
2021/10/31 04:11:08;;;;;;;;;;;12.30;99.90;;;;;;1973165;72;20161;-70
2021/10/31 04:13:35;;;;;;;;;;;12.30;99.90;;;;;;1948715;71;20160;-70
2021/10/31 04:16:02;;;;;;;;;;;12.20;99.90;;;;;;1952597;73;20174;-71
2021/10/31 04:18:29;;;;;;;;;;;12.20;99.90;;;;;;1957573;73;20211;-70
2021/10/31 04:20:56;;;;;;;;;;;12.20;99.90;;;;;;1972081;72;20202;-71
2021/10/31 04:23:24;;;;;;;;;;;12.20;99.90;;;;;;1972052;72;20422;-71
2021/10/31 04:25:50;;;;;;;;;;;12.20;99.90;;;;;;1934843;73;20392;-71
2021/10/31 04:28:18;;;;;;;;;;;12.30;99.90;;;;;;1928283;72;20226;-71
2021/10/31 04:30:44;;;;;;;;;;;12.20;99.90;;;;;;1953896;72;20121;-71
2021/10/31 04:33:12;;;;;;;;;;;12.30;99.90;;;;;;1950360;74;20812;-71
2021/10/31 04:35:38;;;;;;;;;;;12.20;99.90;;;;;;1950331;74;20193;-71
2021/10/31 04:39:06;;;;;;;;;;;12.20;99.90;;;;;;1950308;74;20198;-71
2021/10/31 04:40:43;;;;;;;;;;;12.20;99.90;;;;;;1937189;74;20217;-71
2021/10/31 04:43:11;;;;;;;;;;;12.10;99.90;;;;;;1938516;72;20453;-71
2021/10/31 04:45:40;;;;;;;;;;;12.10;99.90;;;;;;1949911;74;20193;-71
2021/10/31 04:48:07;;;;;;;;;;;12.00;99.90;;;;;;1949301;74;20155;-72
2021/10/31 04:50:34;;;;;;;;;;;12.00;99.90;;;;;;1949917;73;20174;-72
2021/10/31 04:53:01;;;;;;;;;;;12.00;99.90;;;;;;1950536;72;20159;-72
2021/10/31 04:55:28;;;;;;;;;;;12.00;99.90;;;;;;1968550;72;20157;-71
2021/10/31 04:57:56;;;;;;;;;;;12.10;99.90;;;;;;1985756;72;20110;-72
2021/10/31 05:00:24;;;;;;;;;;;12.00;99.90;;;;;;1985670;72;20144;-71
2021/10/31 05:02:51;;;;;;;;;;;11.90;99.90;;;;;;1952974;72;20198;-71
2021/10/31 05:05:19;;;;;;;;;;;11.90;99.90;;;;;;1836808;72;20205;-72
2021/10/31 05:07:48;;;;;;;;;;;11.80;99.90;;;;;;1785441;80;20119;-72
2021/10/31 05:10:15;;;;;;;;;;;11.60;99.90;;;;;;1784890;80;20516;-73
2021/10/31 05:12:42;;;;;;;;;;;11.60;99.90;;;;;;1785299;80;20174;-72
2021/10/31 05:15:09;;;;;;;;;;;11.60;99.90;;;;;;1804227;79;20168;-73
2021/10/31 05:17:35;;;;;;;;;;;11.80;99.90;;;;;;1799893;79;20127;-73
2021/10/31 05:20:03;;;;;;;;;;;11.70;99.90;;;;;;1782406;80;20186;-73
2021/10/31 05:22:30;;;;;;;;;;;11.70;99.90;;;;;;1818090;79;20167;-73
2021/10/31 05:24:57;;;;;;;;;;;11.70;99.90;;;;;;1795720;79;20178;-73
2021/10/31 05:27:23;;;;;;;;;;;11.80;99.90;;;;;;1785158;80;20178;-73
2021/10/31 05:29:50;;;;;;;;;;;11.80;99.90;;;;;;1785305;80;20138;-73
2021/10/31 05:32:17;;;;;;;;;;;11.70;99.90;;;;;;1785315;80;20193;-73
2021/10/31 05:34:44;;;;;;;;;;;11.70;99.90;;;;;;1785004;79;20127;-73
2021/10/31 05:37:11;;;;;;;;;;;11.90;99.90;;;;;;1785241;80;20868;-73
2021/10/31 05:39:38;;;;;;;;;;;11.90;99.90;;;;;;1795164;79;20413;-73
2021/10/31 05:42:05;;;;;;;;;;;11.90;99.90;;;;;;1798025;78;20167;-73
2021/10/31 05:44:32;;;;;;;;;;;11.80;99.90;;;;;;1827396;77;20450;-73
2021/10/31 05:46:59;;;;;;;;;;;11.90;99.90;;;;;;1823209;79;20148;-72
2021/10/31 05:49:26;;;;;;;;;;;11.80;99.90;;;;;;1822533;77;20120;-73
2021/10/31 05:51:53;;;;;;;;;;;11.90;99.90;;;;;;1823452;78;20826;-74
2021/10/31 05:54:20;;;;;;;;;;;11.90;99.90;;;;;;1824648;77;20218;-74
2021/10/31 05:56:46;;;;;;;;;;;11.90;99.90;;;;;;1829577;77;20237;-74
2021/10/31 05:59:13;;;;;;;;;;;11.80;99.90;;;;;;1847131;78;20459;-74
2021/10/31 06:01:40;;;;;;;;;;;11.90;99.90;;;;;;1836330;78;20199;-74
2021/10/31 06:04:07;;;;;;;;;;;11.90;99.90;;;;;;1824058;79;20526;-73
2021/10/31 06:06:34;;;;;;;;;;;11.90;99.90;;;;;;1824132;79;20183;-73
2021/10/31 06:09:00;;;;;;;;;;;11.80;99.90;;;;;;1823612;77;20132;-73
2021/10/31 06:11:27;;;;;;;;;;;11.80;99.90;;;;;;1824495;79;20324;-73
2021/10/31 06:13:57;;;;;;;;;;;11.90;99.90;;;;;;1818717;77;20214;-73
2021/10/31 06:16:26;;;;;;;;;;;11.90;99.90;;;;;;1824069;77;20175;-73
2021/10/31 06:18:52;;;;;;;;;;;11.90;99.90;;;;;;1832325;77;20260;-73
2021/10/31 06:21:19;;;;;;;;;;;11.90;99.90;;;;;;1845261;77;20429;-73
2021/10/31 06:23:46;;;;;;;;;;;11.90;99.90;;;;;;1837017;76;20193;-75
2021/10/31 06:26:13;;;;;;;;;;;11.90;99.90;;;;;;1836989;77;20179;-74
2021/10/31 06:28:40;;;;;;;;;;;11.90;99.90;;;;;;1825681;77;20128;-73
2021/10/31 06:31:06;;;;;;;;;;;11.90;99.90;;;;;;1840813;77;20254;-74
2021/10/31 06:33:33;;;;;;;;;;;11.80;99.90;;;;;;1840179;78;20199;-74
2021/10/31 06:36:01;;;;;;;;;;;11.80;99.90;;;;;;1822352;77;20195;-73
2021/10/31 06:38:27;;;;;;;;;;;11.70;99.90;;;;;;1822512;77;20136;-72
2021/10/31 06:40:54;;;;;;;;;;;11.70;99.90;;;;;;1822840;79;20307;-72
2021/10/31 06:43:21;;;;;;;;;;;11.80;99.90;;;;;;1822906;77;20481;-73
2021/10/31 06:45:48;;;;;;;;;;;11.80;99.90;;;;;;1838097;76;20111;-73
2021/10/31 06:48:15;;;;;;;;;;;11.80;99.90;;;;;;1841503;78;20179;-72
2021/10/31 06:50:42;;;;;;;;;;;11.90;99.90;;;;;;1822485;78;20136;-73
2021/10/31 06:53:08;;;;;;;;;;;11.80;99.90;;;;;;1822757;79;20781;-72
2021/10/31 06:55:35;;;;;;;;;;;11.80;99.90;;;;;;1822499;77;20164;-72
2021/10/31 06:58:03;;;;;;;;;;;11.80;99.90;;;;;;1823192;78;20147;-72
2021/10/31 07:00:29;;;;;;;;;;;11.70;99.90;;;;;;1824252;79;20214;-73
2021/10/31 07:02:56;;;;;;;;;;;11.80;99.90;;;;;;1824243;79;20204;-73
2021/10/31 07:05:23;;;;;;;;;;;11.80;99.90;;;;;;1824070;79;20191;-72
2021/10/31 07:07:50;;;;;;;;;;;11.80;99.90;;;;;;1824289;77;20505;-72
2021/10/31 07:10:17;;;;;;;;;;;11.70;99.90;;;;;;1824091;79;20182;-73
2021/10/31 07:12:43;;;;;;;;;;;11.80;99.90;;;;;;1820644;79;20477;-72
2021/10/31 07:15:11;;;;;;;;;;;11.80;99.90;;;;;;1830776;77;20222;-73
2021/10/31 07:17:39;;;;;;;;;;;11.80;99.90;;;;;;1823737;77;20257;-72
2021/10/31 07:20:06;;;;;;;;;;;11.80;99.90;;;;;;1832435;77;20180;-73
2021/10/31 07:22:34;;;;;;;;;;;11.90;99.90;;;;;;1823514;77;20518;-72
2021/10/31 07:25:02;;;;;;;;;;;11.80;99.90;;;;;;1833280;76;20142;-72
2021/10/31 07:27:29;;;;;;;;;;;11.70;99.90;;;;;;1830822;78;20132;-76
2021/10/31 07:29:56;;;;;;;;;;;11.80;99.90;;;;;;1825816;77;20176;-76
2021/10/31 07:32:23;;;;;;;;;;;11.90;99.90;;;;;;1829106;77;20125;-77
2021/10/31 07:34:50;;;;;;;;;;;12.00;99.90;;;;;;1826874;77;20183;-76
2021/10/31 07:37:17;;;;;;;;;;;11.90;99.90;;;;;;1830470;75;20340;-77
2021/10/31 07:39:44;;;;;;;;;;;12.00;99.90;;;;;;1821575;77;20181;-75
2021/10/31 07:42:13;;;;;;;;;;;12.00;99.90;;;;;;1818509;77;20141;-78
2021/10/31 07:44:40;;;;;;;;;;;12.00;99.90;;;;;;1821443;77;20226;-74
2021/10/31 07:47:07;;;;;;;;;;;11.90;99.90;;;;;;1819952;77;20203;-76
2021/10/31 07:49:33;;;;;;;;;;;11.90;99.90;;;;;;1823262;77;20152;-75
2021/10/31 07:52:00;;;;;;;;;;;12.00;99.90;;;;;;1811928;77;20178;-77
2021/10/31 07:54:27;;;;;;;;;;;12.00;99.90;;;;;;1825494;77;20168;-76
2021/10/31 07:57:00;;;;;;;;;;;11.90;99.90;;;;;;1818879;77;20188;-74
2021/10/31 07:59:22;;;;;;;;;;;12.00;99.90;;;;;;1819217;78;20532;-75
2021/10/31 08:01:49;;;;;;;;;;;12.10;99.90;;;;;;1821891;77;20211;-75
2021/10/31 08:04:17;;;;;;;;;;;12.00;99.90;;;;;;1823919;77;20861;-74
2021/10/31 08:06:45;;;;;;;;;;;12.10;99.90;;;;;;1822792;77;20199;-75
2021/10/31 08:09:11;;;;;;;;;;;12.10;99.90;;;;;;1822380;77;20348;-74
2021/10/31 08:11:42;;;;;;;;;;;12.10;99.90;;;;;;1820530;77;20181;-75
2021/10/31 08:14:07;;;;;;;;;;;12.10;99.90;;;;;;1821621;77;20485;-75
2021/10/31 08:16:36;;;;;;;;;;;12.10;99.90;;;;;;1820847;79;20128;-76
2021/10/31 08:19:02;;;;;;;;;;;12.20;99.90;;;;;;1820283;77;20589;-74
2021/10/31 08:21:29;;;;;;;;;;;12.20;99.90;;;;;;1822258;77;20163;-74
2021/10/31 08:23:57;;;;;;;;;;;12.20;99.90;;;;;;1821946;77;20229;-74
2021/10/31 08:26:24;;;;;;;;;;;12.30;99.90;;;;;;1821503;77;20195;-74
2021/10/31 08:28:51;;;;;;;;;;;12.30;99.90;;;;;;1821417;77;20199;-75
2021/10/31 08:31:24;;;;;;;;;;;12.40;99.90;;;;;;1822157;77;20176;-75
2021/10/31 08:33:47;;;;;;;;;;;12.40;99.90;;;;;;1822074;77;20792;-74
2021/10/31 08:36:14;;;;;;;;;;;12.50;99.90;;;;;;1821394;77;20180;-75
2021/10/31 08:38:41;;;;;;;;;;;12.60;99.90;;;;;;1822553;77;20171;-75
2021/10/31 08:41:07;;;;;;;;;;;12.60;99.90;;;;;;1821395;77;21241;-74
2021/10/31 08:43:34;;;;;;;;;;;12.70;99.90;;;;;;1821480;77;20113;-75
2021/10/31 08:46:02;;;;;;;;;;;12.80;99.90;;;;;;1823417;78;20467;-76
2021/10/31 08:48:30;;;;;;;;;;;12.70;99.90;;;;;;1823047;77;20380;-74
2021/10/31 08:50:58;;;;;;;;;;;12.70;99.90;;;;;;1823995;78;20151;-75
2021/10/31 08:53:27;;;;;;;;;;;12.80;99.90;;;;;;1823118;77;20188;-75
2021/10/31 08:55:53;;;;;;;;;;;12.90;99.90;;;;;;1819923;77;20210;-74
2021/10/31 08:58:20;;;;;;;;;;;13.00;99.90;;;;;;1822649;77;20183;-74
2021/10/31 09:00:47;;;;;;;;;;;13.00;99.90;;;;;;1822195;77;20213;-75
2021/10/31 09:03:13;;;;;;;;;;;13.00;99.90;;;;;;1826419;77;21139;-74
2021/10/31 09:05:40;;;;;;;;;;;13.00;99.90;;;;;;1823872;77;20204;-75
2021/10/31 09:08:09;;;;;;;;;;;13.10;99.90;;;;;;1823365;77;20167;-75
2021/10/31 09:10:36;;;;;;;;;;;13.10;99.90;;;;;;1823892;77;20124;-74
2021/10/31 09:13:03;;;;;;;;;;;13.00;99.90;;;;;;1837050;76;20227;-77
2021/10/31 09:15:30;;;;;;;;;;;13.00;99.90;;;;;;1821696;77;20206;-79
2021/10/31 09:17:57;;;;;;;;;;;13.10;99.90;;;;;;1819892;77;20179;-75
2021/10/31 09:20:25;;;;;;;;;;;13.10;99.90;;;;;;1821122;77;20298;-79
2021/10/31 09:22:56;;;;;;;;;;;13.10;99.90;;;;;;1822253;77;20183;-76
2021/10/31 09:25:23;;;;;;;;;;;13.10;99.90;;;;;;1822574;79;20176;-75
2021/10/31 09:27:50;;;;;;;;;;;13.20;99.90;;;;;;1822827;79;20136;-72
2021/10/31 09:30:18;;;;;;;;;;;13.20;99.90;;;;;;1820867;77;20199;-71
2021/10/31 09:32:49;;;;;;;;;;;13.20;99.90;;;;;;1820447;77;20168;-71
2021/10/31 09:35:17;;;;;;;;;;;13.20;99.90;;;;;;1826301;77;20180;-70
2021/10/31 09:37:44;;;;;;;;;;;13.30;99.90;;;;;;1822671;78;20157;-70
2021/10/31 09:40:12;;;;;;;;;;;13.30;99.90;;;;;;1822702;79;20258;-70
2021/10/31 09:42:39;;;;;;;;;;;13.30;99.90;;;;;;1822706;79;20446;-70
2021/10/31 09:45:07;;;;;;;;;;;13.40;99.90;;;;;;1822585;77;20122;-69
2021/10/31 09:47:34;;;;;;;;;;;13.40;99.90;;;;;;1824048;78;20187;-70
2021/10/31 09:50:01;;;;;;;;;;;13.50;99.90;;;;;;1824399;79;20287;-69
2021/10/31 09:52:28;;;;;;;;;;;13.50;99.90;;;;;;1824398;79;20128;-70
2021/10/31 09:54:56;;;;;;;;;;;13.50;99.90;;;;;;1824134;79;20191;-70
2021/10/31 09:57:23;;;;;;;;;;;13.60;99.90;;;;;;1824561;79;20121;-68
2021/10/31 09:59:53;;;;;;;;;;;13.70;99.90;;;;;;1824437;79;20132;-70
2021/10/31 10:02:39;;;;;;;;;;;13.70;99.90;;;;;;1822967;79;20133;-70
2021/10/31 10:04:56;;;;;;;;;;;13.60;99.90;;;;;;1818897;77;20148;-70
2021/10/31 10:07:23;;;;;;;;;;;13.70;99.90;;;;;;1824317;77;20140;-69
2021/10/31 10:09:54;;;;;;;;;;;13.70;99.90;;;;;;1823742;79;20152;-70
2021/10/31 10:12:22;;;;;;;;;;;13.80;99.90;;;;;;1822593;79;20512;-70
2021/10/31 10:14:51;;;;;;;;;;;13.90;99.90;;;;;;1814978;77;20630;-69
2021/10/31 10:17:37;;;;;;;;;;;13.90;99.90;;;;;;1784778;79;20214;-69
2021/10/31 10:20:05;;;;;;;;;;;14.00;99.90;;;;;;1829188;78;20173;-70
2021/10/31 10:22:37;;;;;;;;;;;14.20;99.90;;;;;;1905734;75;20174;-70
2021/10/31 10:25:01;;;;;;;;;;;14.20;99.90;;;;;;1930983;74;20416;-70
2021/10/31 10:27:30;;;;;;;;;;;14.10;99.90;;;;;;1944729;74;20487;-70
2021/10/31 10:29:58;;;;;;;;;;;14.10;99.90;;;;;;1944936;74;20139;-70
2021/10/31 10:32:25;;;;;;;;;;;14.30;99.90;;;;;;1944453;74;20206;-70
2021/10/31 10:34:54;;;;;;;;;;;14.30;99.90;;;;;;1944714;74;20433;-70
2021/10/31 10:37:21;;;;;;;;;;;14.40;99.90;;;;;;1944248;74;20222;-70
2021/10/31 10:39:52;;;;;;;;;;;14.50;99.90;;;;;;1944929;74;20195;-70
2021/10/31 10:42:21;;;;;;;;;;;14.40;99.90;;;;;;1944739;74;20175;-70
2021/10/31 10:44:48;;;;;;;;;;;14.50;99.90;;;;;;1943562;72;20426;-70
2021/10/31 10:47:20;;;;;;;;;;;14.50;99.90;;;;;;1944696;74;20318;-70
2021/10/31 10:49:48;;;;;;;;;;;14.60;99.90;;;;;;1945191;74;20233;-70
2021/10/31 10:52:22;;;;;;;;;;;14.60;99.90;;;;;;1939368;74;20441;-70
2021/10/31 10:54:51;;;;;;;;;;;14.50;99.90;;;;;;1937882;72;20167;-72
2021/10/31 10:57:18;;;;;;;;;;;14.50;99.90;;;;;;1951956;72;20123;-71
2021/10/31 10:59:46;;;;;;;;;;;14.60;99.90;;;;;;1947785;72;20229;-71
2021/10/31 11:02:14;;;;;;;;;;;14.70;99.90;;;;;;1946309;72;20463;-72
2021/10/31 11:04:43;;;;;;;;;;;14.80;99.90;;;;;;1929204;73;20431;-73
2021/10/31 11:07:10;;;;;;;;;;;14.90;99.90;;;;;;1832271;77;20164;-74
2021/10/31 11:09:42;;;;;;;;;;;15.10;99.90;;;;;;1839792;76;20213;-74
2021/10/31 11:12:21;;;;;;;;;;;15.20;99.90;;;;;;1843137;76;20190;-74
2021/10/31 11:14:49;;;;;;;;;;;15.30;99.90;;;;;;1854637;75;20225;-75
2021/10/31 11:17:17;;;;;;;;;;;15.40;99.90;;;;;;1883772;74;20156;-73
2021/10/31 11:19:45;;;;;;;;;;;15.40;99.90;;;;;;1884616;74;20211;-73
2021/10/31 11:22:13;;;;;;;;;;;15.40;99.90;;;;;;1885084;74;20120;-73
2021/10/31 11:24:41;;;;;;;;;;;15.40;99.90;;;;;;1880784;74;20231;-72
2021/10/31 11:27:09;;;;;;;;;;;15.40;99.90;;;;;;1884218;74;20183;-73
2021/10/31 11:29:36;;;;;;;;;;;15.50;99.90;;;;;;1882297;74;20512;-72
2021/10/31 11:32:03;;;;;;;;;;;15.40;99.90;;;;;;1882801;75;20131;-73
2021/10/31 11:34:30;;;;;;;;;;;15.40;99.90;;;;;;1883930;74;20226;-73
2021/10/31 11:36:59;;;;;;;;;;;15.40;99.90;;;;;;1842317;76;20218;-73
2021/10/31 11:39:26;;;;;;;;;;;15.50;99.90;;;;;;1852196;76;20165;-76
2021/10/31 11:41:54;;;;;;;;;;;15.50;99.90;;;;;;1854363;76;20189;-72
2021/10/31 11:44:21;;;;;;;;;;;15.60;99.90;;;;;;1921980;73;20879;-74
2021/10/31 11:46:48;;;;;;;;;;;15.70;99.90;;;;;;1913830;73;20223;-71
2021/10/31 11:49:15;;;;;;;;;;;15.80;99.90;;;;;;1921045;73;20396;-70
2021/10/31 11:51:43;;;;;;;;;;;15.90;99.90;;;;;;1924419;73;20210;-70
2021/10/31 11:54:12;;;;;;;;;;;15.90;99.90;;;;;;1922595;73;20465;-70
2021/10/31 11:57:12;;;;;;;;;;;16.00;99.90;;;;;;1918730;73;20298;-71
2021/10/31 11:59:16;;;;;;;;;;;16.10;99.90;;;;;;1907258;73;20516;-71
2021/10/31 12:01:47;;;;;;;;;;;16.30;99.90;;;;;;1924313;73;20196;-71
2021/10/31 12:04:28;;;;;;;;;;;16.30;99.90;;;;;;1917863;73;20180;-72
2021/10/31 12:06:56;;;;;;;;;;;16.20;99.90;;;;;;1899779;73;20187;-72
2021/10/31 12:09:25;;;;;;;;;;;16.20;99.90;;;;;;1924300;73;21299;-73
2021/10/31 12:11:56;;;;;;;;;;;16.10;99.90;;;;;;1911897;73;20213;-71
2021/10/31 12:14:24;;;;;;;;;;;16.10;99.90;;;;;;1919844;73;20153;-74
2021/10/31 12:16:56;;;;;;;;;;;16.20;99.90;;;;;;1915060;73;20130;-74
2021/10/31 12:19:27;;;;;;;;;;;16.20;99.90;;;;;;1923681;73;20180;-76
2021/10/31 12:22:11;;;;;;;;;;;16.10;99.90;;;;;;1923624;73;20152;-71
2021/10/31 12:24:39;;;;;;;;;;;16.60;99.90;;;;;;1924512;73;20220;-72
2021/10/31 12:27:14;;;;;;;;;;;16.80;99.90;;;;;;1918068;73;20240;-70
2021/10/31 12:29:44;;;;;;;;;;;16.80;99.90;;;;;;1913082;73;20173;-69
2021/10/31 12:32:16;;;;;;;;;;;16.30;99.90;;;;;;1898092;73;20246;-72
2021/10/31 12:34:44;;;;;;;;;;;16.10;99.90;;;;;;1918939;73;20189;-71
2021/10/31 12:37:22;;;;;;;;;;;16.20;99.90;;;;;;1916717;73;20252;-71
2021/10/31 12:39:50;;;;;;;;;;;16.30;99.90;;;;;;1921608;73;20205;-69
2021/10/31 12:42:19;;;;;;;;;;;16.60;99.90;;;;;;1914683;73;20253;-69
2021/10/31 12:44:47;;;;;;;;;;;16.80;99.90;;;;;;1919110;73;20200;-71
2021/10/31 12:47:18;;;;;;;;;;;16.90;99.90;;;;;;1921413;73;20439;-71
2021/10/31 12:49:45;;;;;;;;;;;17.10;99.90;;;;;;1917957;73;20129;-70
2021/10/31 12:52:20;;;;;;;;;;;17.10;99.90;;;;;;1919288;73;20126;-70
2021/10/31 12:54:49;;;;;;;;;;;17.10;99.90;;;;;;1923048;73;20474;-70
2021/10/31 12:57:16;;;;;;;;;;;16.70;99.90;;;;;;1917128;73;20180;-71
2021/10/31 12:59:44;;;;;;;;;;;16.60;99.90;;;;;;1921402;73;20148;-70
2021/10/31 13:02:12;;;;;;;;;;;16.80;99.90;;;;;;1922858;73;20177;-70
2021/10/31 13:04:53;;;;;;;;;;;16.90;99.90;;;;;;1919628;73;20165;-73
2021/10/31 13:07:25;;;;;;;;;;;16.90;99.90;;;;;;1921242;73;20788;-74
2021/10/31 13:09:49;;;;;;;;;;;16.90;99.90;;;;;;1924085;73;20655;-73
2021/10/31 13:12:28;;;;;;;;;;;16.90;99.90;;;;;;1922863;73;20172;-73
2021/10/31 13:15:03;;;;;;;;;;;16.70;99.90;;;;;;1921895;73;20125;-73
2021/10/31 13:17:34;;;;;;;;;;;16.50;99.90;;;;;;1912672;73;20150;-74
2021/10/31 13:20:11;;;;;;;;;;;16.30;99.90;;;;;;1906111;74;20160;-76
2021/10/31 13:22:38;;;;;;;;;;;16.30;99.90;;;;;;1920798;73;20181;-73
2021/10/31 13:25:05;;;;;;;;;;;16.40;99.90;;;;;;1926105;73;20173;-77
2021/10/31 13:27:32;;;;;;;;;;;16.80;99.90;;;;;;1925422;73;20161;-74
2021/10/31 13:29:59;;;;;;;;;;;17.00;99.90;;;;;;1918892;73;20211;-74
2021/10/31 13:32:27;;;;;;;;;;;16.70;99.90;;;;;;1919103;73;20133;-73
2021/10/31 13:34:55;;;;;;;;;;;16.60;99.90;;;;;;1912821;73;20180;-72
2021/10/31 13:37:23;;;;;;;;;;;16.50;99.90;;;;;;1919015;73;20179;-73
2021/10/31 13:39:54;;;;;;;;;;;16.50;99.90;;;;;;1925552;73;20210;-73
2021/10/31 13:42:28;;;;;;;;;;;16.40;99.90;;;;;;1918403;73;20118;-76
2021/10/31 13:44:55;;;;;;;;;;;16.30;99.90;;;;;;1909138;73;20188;-75
2021/10/31 13:47:42;;;;;;;;;;;16.30;99.90;;;;;;1918431;73;20740;-75
2021/10/31 13:50:16;;;;;;;;;;;16.10;99.90;;;;;;1935092;73;20435;-74
2021/10/31 13:52:44;;;;;;;;;;;16.00;99.90;;;;;;1916261;73;20125;-75
2021/10/31 13:55:13;;;;;;;;;;;16.00;99.90;;;;;;1913142;73;20190;-74
2021/10/31 13:57:47;;;;;;;;;;;15.90;99.90;;;;;;1917612;73;20704;-75
2021/10/31 14:00:15;;;;;;;;;;;15.90;99.90;;;;;;1918580;73;20211;-74
2021/10/31 14:02:42;;;;;;;;;;;15.80;99.90;;;;;;1918676;73;20167;-74
2021/10/31 14:05:17;;;;;;;;;;;15.70;99.90;;;;;;1917867;73;20177;-74
2021/10/31 14:07:48;;;;;;;;;;;15.70;99.90;;;;;;1924794;73;20208;-74
2021/10/31 14:10:16;;;;;;;;;;;15.70;99.90;;;;;;1927381;73;20180;-74
2021/10/31 14:12:43;;;;;;;;;;;15.70;99.90;;;;;;1919485;73;20173;-74
2021/10/31 14:15:17;;;;;;;;;;;15.70;99.90;;;;;;1918624;73;20262;-75
2021/10/31 14:17:55;;;;;;;;;;;15.70;99.90;;;;;;1918920;73;20608;-74
2021/10/31 14:20:21;;;;;;;;;;;15.70;99.90;;;;;;1921144;73;20273;-73
2021/10/31 14:22:50;;;;;;;;;;;15.60;99.90;;;;;;1918186;73;20125;-73